sensor_id;sensor_type;location;lat;lon;timestamp;pressure;altitude;pressure_sealevel;temperature
19948;BMP180;10135;50.702;7.276;2024-01-15T06:02:03;98053.00;;;6.50
19948;BMP180;10135;50.702;7.276;2024-01-15T06:04:04;98050.00;;;6.50
19948;BMP180;10135;50.702;7.276;2024-01-15T06:06:05;98044.00;;;6.50
19948;BMP180;10135;50.702;7.276;2024-01-15T06:08:06;98048.00;;;6.50
19948;BMP180;10135;50.702;7.276;2024-01-15T06:10:07;98042.00;;;6.50
19948;BMP180;10135;50.702;7.276;2024-01-15T06:12:08;98050.00;;;6.50
19948;BMP180;10135;50.702;7.276;2024-01-15T06:14:09;98033.00;;;6.50
19948;BMP180;10135;50.702;7.276;2024-01-15T06:16:16;98042.00;;;6.50
19948;BMP180;10135;50.702;7.276;2024-01-15T06:18:17;98038.00;;;6.50
19948;BMP180;10135;50.702;7.276;2024-01-15T06:20:17;98040.00;;;6.50
19948;BMP180;10135;50.702;7.276;2024-01-15T06:22:18;98032.00;;;6.50
19948;BMP180;10135;50.702;7.276;2024-01-15T06:24:19;98036.00;;;6.50
19948;BMP180;10135;50.702;7.276;2024-01-15T06:26:20;98040.00;;;6.50
19948;BMP180;10135;50.702;7.276;2024-01-15T06:28:21;98037.00;;;6.50
19948;BMP180;10135;50.702;7.276;2024-01-15T06:30:21;98028.00;;;6.50
19948;BMP180;10135;50.702;7.276;2024-01-15T06:32:22;98044.00;;;6.50
19948;BMP180;10135;50.702;7.276;2024-01-15T06:34:23;98035.00;;;6.50
19948;BMP180;10135;50.702;7.276;2024-01-15T06:36:23;98034.00;;;6.50
19948;BMP180;10135;50.702;7.276;2024-01-15T06:38:24;98026.00;;;6.50
19948;BMP180;10135;50.702;7.276;2024-01-15T06:40:25;98022.00;;;6.50
19948;BMP180;10135;50.702;7.276;2024-01-15T06:42:26;98012.00;;;6.50
19948;BMP180;10135;50.702;7.276;2024-01-15T06:44:26;98027.00;;;6.50
19948;BMP180;10135;50.702;7.276;2024-01-15T06:46:27;98028.00;;;6.50
19948;BMP180;10135;50.702;7.276;2024-01-15T06:48:27;98022.00;;;6.50
19948;BMP180;10135;50.702;7.276;2024-01-15T06:50:28;98015.00;;;6.50
19948;BMP180;10135;50.702;7.276;2024-01-15T06:52:29;98026.00;;;6.50
19948;BMP180;10135;50.702;7.276;2024-01-15T06:54:29;98016.00;;;6.50
19948;BMP180;10135;50.702;7.276;2024-01-15T06:56:31;98022.00;;;6.50
19948;BMP180;10135;50.702;7.276;2024-01-15T06:58:32;98012.00;;;6.50
19948;BMP180;10135;50.702;7.276;2024-01-15T07:00:32;98021.00;;;6.50
19948;BMP180;10135;50.702;7.276;2024-01-15T07:02:33;98012.00;;;6.50
19948;BMP180;10135;50.702;7.276;2024-01-15T07:04:34;98010.00;;;6.50
19948;BMP180;10135;50.702;7.276;2024-01-15T07:06:34;98004.00;;;6.50
19948;BMP180;10135;50.702;7.276;2024-01-15T07:08:35;98012.00;;;6.50
19948;BMP180;10135;50.702;7.276;2024-01-15T07:10:36;98014.00;;;6.50
19948;BMP180;10135;50.702;7.276;2024-01-15T07:12:37;98011.00;;;6.50
19948;BMP180;10135;50.702;7.276;2024-01-15T07:14:38;98022.00;;;6.50
19948;BMP180;10135;50.702;7.276;2024-01-15T07:16:38;98018.00;;;6.50
19948;BMP180;10135;50.702;7.276;2024-01-15T07:18:39;98018.00;;;6.50
19948;BMP180;10135;50.702;7.276;2024-01-15T07:20:40;98024.00;;;6.50
19948;BMP180;10135;50.702;7.276;2024-01-15T07:22:40;98018.00;;;6.50
19948;BMP180;10135;50.702;7.276;2024-01-15T07:24:41;98014.00;;;6.50
19948;BMP180;10135;50.702;7.276;2024-01-15T07:26:41;98018.00;;;6.50
19948;BMP180;10135;50.702;7.276;2024-01-15T07:28:42;98009.00;;;6.50
19948;BMP180;10135;50.702;7.276;2024-01-15T07:30:43;98011.00;;;6.50
19948;BMP180;10135;50.702;7.276;2024-01-15T07:32:43;98013.00;;;6.50
19948;BMP180;10135;50.702;7.276;2024-01-15T07:34:44;98000.00;;;6.50
19948;BMP180;10135;50.702;7.276;2024-01-15T07:36:45;98014.00;;;6.50
19948;BMP180;10135;50.702;7.276;2024-01-15T07:38:47;98008.00;;;6.50
19948;BMP180;10135;50.702;7.276;2024-01-15T07:40:47;98012.00;;;6.50
19948;BMP180;10135;50.702;7.276;2024-01-15T07:42:49;98008.00;;;6.50
19948;BMP180;10135;50.702;7.276;2024-01-15T07:44:50;98005.00;;;6.50
19948;BMP180;10135;50.702;7.276;2024-01-15T07:46:52;98004.00;;;6.50
19948;BMP180;10135;50.702;7.276;2024-01-15T07:48:52;98003.00;;;6.40
19948;BMP180;10135;50.702;7.276;2024-01-15T07:50:56;98006.00;;;6.40
19948;BMP180;10135;50.702;7.276;2024-01-15T07:52:57;98004.00;;;6.40
19948;BMP180;10135;50.702;7.276;2024-01-15T07:54:58;98003.00;;;6.40
19948;BMP180;10135;50.702;7.276;2024-01-15T07:57:02;98012.00;;;6.40
19948;BMP180;10135;50.702;7.276;2024-01-15T07:59:05;98009.00;;;6.50
19948;BMP180;10135;50.702;7.276;2024-01-15T08:01:06;98001.00;;;6.50
19948;BMP180;10135;50.702;7.276;2024-01-15T08:03:07;97997.00;;;6.50
19948;BMP180;10135;50.702;7.276;2024-01-15T08:05:08;97995.00;;;6.50
19948;BMP180;10135;50.702;7.276;2024-01-15T08:07:08;98005.00;;;6.50
19948;BMP180;10135;50.702;7.276;2024-01-15T08:09:09;98006.00;;;6.50
19948;BMP180;10135;50.702;7.276;2024-01-15T08:11:10;98000.00;;;6.50
19948;BMP180;10135;50.702;7.276;2024-01-15T08:13:11;98005.00;;;6.50
19948;BMP180;10135;50.702;7.276;2024-01-15T08:15:12;97999.00;;;6.60
19948;BMP180;10135;50.702;7.276;2024-01-15T08:17:12;97997.00;;;6.60
19948;BMP180;10135;50.702;7.276;2024-01-15T08:19:13;97999.00;;;6.60
19948;BMP180;10135;50.702;7.276;2024-01-15T08:21:14;97997.00;;;6.60
19948;BMP180;10135;50.702;7.276;2024-01-15T08:23:15;97998.00;;;6.60
19948;BMP180;10135;50.702;7.276;2024-01-15T08:25:16;98004.00;;;6.60
19948;BMP180;10135;50.702;7.276;2024-01-15T08:27:16;97999.00;;;6.60
19948;BMP180;10135;50.702;7.276;2024-01-15T08:29:17;98001.00;;;6.70
19948;BMP180;10135;50.702;7.276;2024-01-15T08:31:21;98008.00;;;6.70
19948;BMP180;10135;50.702;7.276;2024-01-15T08:33:21;98006.00;;;6.70
19948;BMP180;10135;50.702;7.276;2024-01-15T08:35:22;98000.00;;;6.70
19948;BMP180;10135;50.702;7.276;2024-01-15T08:37:23;98001.00;;;6.70
19948;BMP180;10135;50.702;7.276;2024-01-15T08:39:25;97997.00;;;6.70
19948;BMP180;10135;50.702;7.276;2024-01-15T08:41:25;98006.00;;;6.70
19948;BMP180;10135;50.702;7.276;2024-01-15T08:43:27;98009.00;;;6.70
19948;BMP180;10135;50.702;7.276;2024-01-15T08:45:27;98010.00;;;6.70
19948;BMP180;10135;50.702;7.276;2024-01-15T08:47:28;98003.00;;;6.80
19948;BMP180;10135;50.702;7.276;2024-01-15T08:49:29;97996.00;;;6.80
19948;BMP180;10135;50.702;7.276;2024-01-15T08:51:29;98000.00;;;6.80
19948;BMP180;10135;50.702;7.276;2024-01-15T08:53:30;98002.00;;;6.80
19948;BMP180;10135;50.702;7.276;2024-01-15T08:55:30;98014.00;;;6.80
19948;BMP180;10135;50.702;7.276;2024-01-15T08:57:31;98005.00;;;6.80
19948;BMP180;10135;50.702;7.276;2024-01-15T08:59:32;98007.00;;;6.90
19948;BMP180;10135;50.702;7.276;2024-01-15T09:01:32;98002.00;;;6.90
19948;BMP180;10135;50.702;7.276;2024-01-15T09:03:33;98008.00;;;6.90
19948;BMP180;10135;50.702;7.276;2024-01-15T09:05:34;98008.00;;;6.90
19948;BMP180;10135;50.702;7.276;2024-01-15T09:07:35;98002.00;;;6.90
19948;BMP180;10135;50.702;7.276;2024-01-15T09:09:36;98014.00;;;6.90
19948;BMP180;10135;50.702;7.276;2024-01-15T09:11:37;98007.00;;;6.90
19948;BMP180;10135;50.702;7.276;2024-01-15T09:13:37;98013.00;;;6.90
19948;BMP180;10135;50.702;7.276;2024-01-15T09:15:38;98009.00;;;6.90
19948;BMP180;10135;50.702;7.276;2024-01-15T09:17:39;98012.00;;;6.90
19948;BMP180;10135;50.702;7.276;2024-01-15T09:19:40;98017.00;;;6.90
19948;BMP180;10135;50.702;7.276;2024-01-15T09:21:40;98024.00;;;6.90
19948;BMP180;10135;50.702;7.276;2024-01-15T09:23:41;98022.00;;;6.90
19948;BMP180;10135;50.702;7.276;2024-01-15T09:25:41;98016.00;;;6.90
19948;BMP180;10135;50.702;7.276;2024-01-15T09:27:42;98012.00;;;6.90
19948;BMP180;10135;50.702;7.276;2024-01-15T09:29:43;98012.00;;;6.90
19948;BMP180;10135;50.702;7.276;2024-01-15T09:31:46;98017.00;;;6.90
19948;BMP180;10135;50.702;7.276;2024-01-15T09:33:47;98010.00;;;7.00
19948;BMP180;10135;50.702;7.276;2024-01-15T09:35:48;98009.00;;;6.90
19948;BMP180;10135;50.702;7.276;2024-01-15T09:37:48;98006.00;;;7.00
19948;BMP180;10135;50.702;7.276;2024-01-15T09:39:49;98008.00;;;7.00
19948;BMP180;10135;50.702;7.276;2024-01-15T09:41:50;98002.00;;;7.00
19948;BMP180;10135;50.702;7.276;2024-01-15T09:43:51;98001.00;;;7.00
19948;BMP180;10135;50.702;7.276;2024-01-15T09:45:54;98006.00;;;7.00
19948;BMP180;10135;50.702;7.276;2024-01-15T09:47:55;98005.00;;;7.00
19948;BMP180;10135;50.702;7.276;2024-01-15T09:49:58;98004.00;;;7.00
19948;BMP180;10135;50.702;7.276;2024-01-15T09:52:01;98010.00;;;7.00
19948;BMP180;10135;50.702;7.276;2024-01-15T09:54:02;98003.00;;;7.00
19948;BMP180;10135;50.702;7.276;2024-01-15T09:56:05;98004.00;;;7.00
19948;BMP180;10135;50.702;7.276;2024-01-15T09:58:06;98007.00;;;7.00
19948;BMP180;10135;50.702;7.276;2024-01-15T10:00:07;98015.00;;;7.00
19948;BMP180;10135;50.702;7.276;2024-01-15T10:02:14;98012.00;;;7.00
19948;BMP180;10135;50.702;7.276;2024-01-15T10:04:17;98009.00;;;6.90
19948;BMP180;10135;50.702;7.276;2024-01-15T10:06:18;98010.00;;;6.90
19948;BMP180;10135;50.702;7.276;2024-01-15T10:08:20;98008.00;;;6.90
19948;BMP180;10135;50.702;7.276;2024-01-15T10:10:22;98014.00;;;6.90
19948;BMP180;10135;50.702;7.276;2024-01-15T10:12:23;98015.00;;;6.80
19948;BMP180;10135;50.702;7.276;2024-01-15T10:14:24;98014.00;;;6.80
19948;BMP180;10135;50.702;7.276;2024-01-15T10:16:26;98006.00;;;6.80
19948;BMP180;10135;50.702;7.276;2024-01-15T10:18:26;98010.00;;;6.70
19948;BMP180;10135;50.702;7.276;2024-01-15T10:20:27;98011.00;;;6.70
19948;BMP180;10135;50.702;7.276;2024-01-15T10:22:28;98010.00;;;6.70
19948;BMP180;10135;50.702;7.276;2024-01-15T10:24:28;98018.00;;;6.60
19948;BMP180;10135;50.702;7.276;2024-01-15T10:26:30;98015.00;;;6.60
19948;BMP180;10135;50.702;7.276;2024-01-15T10:28:31;98016.00;;;6.60
19948;BMP180;10135;50.702;7.276;2024-01-15T10:30:32;98022.00;;;6.60
19948;BMP180;10135;50.702;7.276;2024-01-15T10:32:33;98023.00;;;6.60
19948;BMP180;10135;50.702;7.276;2024-01-15T10:34:38;98024.00;;;6.60
19948;BMP180;10135;50.702;7.276;2024-01-15T10:36:40;98023.00;;;6.50
19948;BMP180;10135;50.702;7.276;2024-01-15T10:38:43;98022.00;;;6.50
19948;BMP180;10135;50.702;7.276;2024-01-15T10:40:44;98021.00;;;6.50
19948;BMP180;10135;50.702;7.276;2024-01-15T10:42:45;98021.00;;;6.40
19948;BMP180;10135;50.702;7.276;2024-01-15T10:44:47;98026.00;;;6.40
19948;BMP180;10135;50.702;7.276;2024-01-15T10:46:48;98014.00;;;6.40
19948;BMP180;10135;50.702;7.276;2024-01-15T10:48:48;98016.00;;;6.40
19948;BMP180;10135;50.702;7.276;2024-01-15T10:50:49;98017.00;;;6.40
19948;BMP180;10135;50.702;7.276;2024-01-15T10:52:51;98029.00;;;6.40
19948;BMP180;10135;50.702;7.276;2024-01-15T10:54:53;98021.00;;;6.40
19948;BMP180;10135;50.702;7.276;2024-01-15T10:56:56;98015.00;;;6.40
19948;BMP180;10135;50.702;7.276;2024-01-15T10:58:57;98017.00;;;6.40
19948;BMP180;10135;50.702;7.276;2024-01-15T11:00:58;98017.00;;;6.40
19948;BMP180;10135;50.702;7.276;2024-01-15T11:03:01;98012.00;;;6.40
19948;BMP180;10135;50.702;7.276;2024-01-15T11:05:03;98010.00;;;6.40
19948;BMP180;10135;50.702;7.276;2024-01-15T11:07:05;98016.00;;;6.40
19948;BMP180;10135;50.702;7.276;2024-01-15T11:09:07;98009.00;;;6.40
19948;BMP180;10135;50.702;7.276;2024-01-15T11:11:08;98004.00;;;6.40
19948;BMP180;10135;50.702;7.276;2024-01-15T11:13:39;98008.00;;;6.40
19948;BMP180;10135;50.702;7.276;2024-01-15T11:16:01;98015.00;;;6.30
19948;BMP180;10135;50.702;7.276;2024-01-15T11:18:02;98017.00;;;6.40
19948;BMP180;10135;50.702;7.276;2024-01-15T11:20:06;98013.00;;;6.40
19948;BMP180;10135;50.702;7.276;2024-01-15T11:24:40;98014.00;;;6.40
19948;BMP180;10135;50.702;7.276;2024-01-15T11:28:48;98017.00;;;6.30
19948;BMP180;10135;50.702;7.276;2024-01-15T11:30:49;98016.00;;;6.30
19948;BMP180;10135;50.702;7.276;2024-01-15T11:32:49;98017.00;;;6.30
19948;BMP180;10135;50.702;7.276;2024-01-15T11:38:52;98030.00;;;6.30
19948;BMP180;10135;50.702;7.276;2024-01-15T11:40:53;98025.00;;;6.30
19948;BMP180;10135;50.702;7.276;2024-01-15T11:42:54;98028.00;;;6.30
19948;BMP180;10135;50.702;7.276;2024-01-15T11:44:55;98031.00;;;6.30
19948;BMP180;10135;50.702;7.276;2024-01-15T11:49:04;98032.00;;;6.40
19948;BMP180;10135;50.702;7.276;2024-01-15T11:51:07;98038.00;;;6.40
19948;BMP180;10135;50.702;7.276;2024-01-15T11:53:45;98044.00;;;6.40
19948;BMP180;10135;50.702;7.276;2024-01-15T11:55:51;98044.00;;;6.40
19948;BMP180;10135;50.702;7.276;2024-01-15T11:57:53;98038.00;;;6.40
19948;BMP180;10135;50.702;7.276;2024-01-15T11:59:57;98035.00;;;6.40
19948;BMP180;10135;50.702;7.276;2024-01-15T12:01:57;98041.00;;;6.40
19948;BMP180;10135;50.702;7.276;2024-01-15T12:03:58;98044.00;;;6.40
19948;BMP180;10135;50.702;7.276;2024-01-15T12:05:59;98052.00;;;6.40
19948;BMP180;10135;50.702;7.276;2024-01-15T12:08:00;98037.00;;;6.50
19948;BMP180;10135;50.702;7.276;2024-01-15T12:10:02;98054.00;;;6.50
19948;BMP180;10135;50.702;7.276;2024-01-15T12:12:09;98038.00;;;6.50
19948;BMP180;10135;50.702;7.276;2024-01-15T12:14:14;98044.00;;;6.50
19948;BMP180;10135;50.702;7.276;2024-01-15T12:16:15;98040.00;;;6.60
19948;BMP180;10135;50.702;7.276;2024-01-15T12:18:18;98039.00;;;6.60
19948;BMP180;10135;50.702;7.276;2024-01-15T12:20:19;98041.00;;;6.60
19948;BMP180;10135;50.702;7.276;2024-01-15T12:22:20;98037.00;;;6.60
19948;BMP180;10135;50.702;7.276;2024-01-15T12:24:20;98050.00;;;6.60
19948;BMP180;10135;50.702;7.276;2024-01-15T12:26:21;98046.00;;;6.60
19948;BMP180;10135;50.702;7.276;2024-01-15T12:28:22;98047.00;;;6.60
19948;BMP180;10135;50.702;7.276;2024-01-15T12:30:23;98050.00;;;6.70
19948;BMP180;10135;50.702;7.276;2024-01-15T12:32:24;98040.00;;;6.70
19948;BMP180;10135;50.702;7.276;2024-01-15T12:34:29;98036.00;;;6.70
19948;BMP180;10135;50.702;7.276;2024-01-15T12:36:31;98032.00;;;6.70
19948;BMP180;10135;50.702;7.276;2024-01-15T12:38:32;98039.00;;;6.70
19948;BMP180;10135;50.702;7.276;2024-01-15T12:40:33;98035.00;;;6.70
19948;BMP180;10135;50.702;7.276;2024-01-15T12:42:34;98035.00;;;6.70
19948;BMP180;10135;50.702;7.276;2024-01-15T12:44:35;98035.00;;;6.80
19948;BMP180;10135;50.702;7.276;2024-01-15T12:46:38;98040.00;;;6.80
19948;BMP180;10135;50.702;7.276;2024-01-15T12:48:39;98039.00;;;6.80
19948;BMP180;10135;50.702;7.276;2024-01-15T12:50:43;98035.00;;;6.80
19948;BMP180;10135;50.702;7.276;2024-01-15T12:52:44;98043.00;;;6.90
19948;BMP180;10135;50.702;7.276;2024-01-15T12:54:45;98061.00;;;6.90
19948;BMP180;10135;50.702;7.276;2024-01-15T12:56:45;98051.00;;;6.90
19948;BMP180;10135;50.702;7.276;2024-01-15T12:58:46;98056.00;;;7.00
19948;BMP180;10135;50.702;7.276;2024-01-15T13:00:47;98050.00;;;7.00
19948;BMP180;10135;50.702;7.276;2024-01-15T13:02:48;98047.00;;;7.00
19948;BMP180;10135;50.702;7.276;2024-01-15T13:04:50;98047.00;;;7.00
19948;BMP180;10135;50.702;7.276;2024-01-15T13:06:51;98043.00;;;7.00
19948;BMP180;10135;50.702;7.276;2024-01-15T13:08:52;98048.00;;;7.10
19948;BMP180;10135;50.702;7.276;2024-01-15T13:10:52;98048.00;;;7.10
19948;BMP180;10135;50.702;7.276;2024-01-15T13:12:56;98046.00;;;7.10
19948;BMP180;10135;50.702;7.276;2024-01-15T13:14:58;98051.00;;;7.10
19948;BMP180;10135;50.702;7.276;2024-01-15T13:16:59;98044.00;;;7.10
19948;BMP180;10135;50.702;7.276;2024-01-15T13:19:00;98049.00;;;7.00
19948;BMP180;10135;50.702;7.276;2024-01-15T13:21:00;98055.00;;;7.00
19948;BMP180;10135;50.702;7.276;2024-01-15T13:23:03;98053.00;;;7.00
19948;BMP180;10135;50.702;7.276;2024-01-15T13:25:05;98050.00;;;7.00
19948;BMP180;10135;50.702;7.276;2024-01-15T13:27:07;98045.00;;;7.00
19948;BMP180;10135;50.702;7.276;2024-01-15T13:29:08;98055.00;;;7.00
19948;BMP180;10135;50.702;7.276;2024-01-15T13:31:09;98049.00;;;7.00
19948;BMP180;10135;50.702;7.276;2024-01-15T13:33:10;98054.00;;;7.00
19948;BMP180;10135;50.702;7.276;2024-01-15T13:35:10;98056.00;;;7.00
19948;BMP180;10135;50.702;7.276;2024-01-15T13:37:13;98060.00;;;7.00
19948;BMP180;10135;50.702;7.276;2024-01-15T13:39:14;98056.00;;;7.00
19948;BMP180;10135;50.702;7.276;2024-01-15T13:41:14;98056.00;;;7.00
19948;BMP180;10135;50.702;7.276;2024-01-15T13:43:15;98045.00;;;7.00
19948;BMP180;10135;50.702;7.276;2024-01-15T13:45:16;98052.00;;;7.00
19948;BMP180;10135;50.702;7.276;2024-01-15T13:47:17;98064.00;;;7.00
19948;BMP180;10135;50.702;7.276;2024-01-15T13:49:18;98075.00;;;7.00
19948;BMP180;10135;50.702;7.276;2024-01-15T13:51:19;98070.00;;;7.00
19948;BMP180;10135;50.702;7.276;2024-01-15T13:53:20;98062.00;;;6.90
19948;BMP180;10135;50.702;7.276;2024-01-15T13:55:21;98067.00;;;6.90
19948;BMP180;10135;50.702;7.276;2024-01-15T13:57:21;98072.00;;;6.90
19948;BMP180;10135;50.702;7.276;2024-01-15T13:59:23;98073.00;;;6.90
19948;BMP180;10135;50.702;7.276;2024-01-15T14:01:24;98077.00;;;6.90
19948;BMP180;10135;50.702;7.276;2024-01-15T14:03:25;98075.00;;;6.90
19948;BMP180;10135;50.702;7.276;2024-01-15T14:05:28;98079.00;;;6.90
19948;BMP180;10135;50.702;7.276;2024-01-15T14:07:29;98075.00;;;6.80
19948;BMP180;10135;50.702;7.276;2024-01-15T14:09:30;98089.00;;;6.80
19948;BMP180;10135;50.702;7.276;2024-01-15T14:11:32;98091.00;;;6.90
19948;BMP180;10135;50.702;7.276;2024-01-15T14:13:33;98090.00;;;6.80
19948;BMP180;10135;50.702;7.276;2024-01-15T14:15:34;98084.00;;;6.80
19948;BMP180;10135;50.702;7.276;2024-01-15T14:17:35;98093.00;;;6.80
19948;BMP180;10135;50.702;7.276;2024-01-15T14:19:36;98087.00;;;6.80
19948;BMP180;10135;50.702;7.276;2024-01-15T14:21:36;98091.00;;;6.70
19948;BMP180;10135;50.702;7.276;2024-01-15T14:23:37;98087.00;;;6.80
19948;BMP180;10135;50.702;7.276;2024-01-15T14:25:37;98092.00;;;6.70
19948;BMP180;10135;50.702;7.276;2024-01-15T14:27:39;98099.00;;;6.70
19948;BMP180;10135;50.702;7.276;2024-01-15T14:29:39;98105.00;;;6.70
19948;BMP180;10135;50.702;7.276;2024-01-15T14:31:40;98110.00;;;6.70
19948;BMP180;10135;50.702;7.276;2024-01-15T14:33:41;98112.00;;;6.70
19948;BMP180;10135;50.702;7.276;2024-01-15T14:35:41;98112.00;;;6.70
19948;BMP180;10135;50.702;7.276;2024-01-15T14:37:42;98120.00;;;6.70
19948;BMP180;10135;50.702;7.276;2024-01-15T14:39:42;98125.00;;;6.70
19948;BMP180;10135;50.702;7.276;2024-01-15T14:41:43;98122.00;;;6.70
19948;BMP180;10135;50.702;7.276;2024-01-15T14:43:44;98112.00;;;6.70
19948;BMP180;10135;50.702;7.276;2024-01-15T14:45:45;98134.00;;;6.60
19948;BMP180;10135;50.702;7.276;2024-01-15T14:47:46;98127.00;;;6.60
19948;BMP180;10135;50.702;7.276;2024-01-15T14:49:47;98134.00;;;6.60
19948;BMP180;10135;50.702;7.276;2024-01-15T14:51:47;98135.00;;;6.60
19948;BMP180;10135;50.702;7.276;2024-01-15T14:53:49;98133.00;;;6.60
19948;BMP180;10135;50.702;7.276;2024-01-15T14:55:50;98130.00;;;6.60
19948;BMP180;10135;50.702;7.276;2024-01-15T14:57:52;98151.00;;;6.60
19948;BMP180;10135;50.702;7.276;2024-01-15T14:59:53;98143.00;;;6.60
19948;BMP180;10135;50.702;7.276;2024-01-15T15:01:54;98142.00;;;6.50
19948;BMP180;10135;50.702;7.276;2024-01-15T15:03:54;98158.00;;;6.50
19948;BMP180;10135;50.702;7.276;2024-01-15T15:05:55;98150.00;;;6.50
19948;BMP180;10135;50.702;7.276;2024-01-15T15:07:56;98150.00;;;6.50
19948;BMP180;10135;50.702;7.276;2024-01-15T15:09:56;98160.00;;;6.50
19948;BMP180;10135;50.702;7.276;2024-01-15T15:11:57;98160.00;;;6.40
19948;BMP180;10135;50.702;7.276;2024-01-15T15:13:57;98164.00;;;6.40
19948;BMP180;10135;50.702;7.276;2024-01-15T15:16:00;98172.00;;;6.40
19948;BMP180;10135;50.702;7.276;2024-01-15T15:18:01;98173.00;;;6.30
19948;BMP180;10135;50.702;7.276;2024-01-15T15:20:02;98176.00;;;6.30
19948;BMP180;10135;50.702;7.276;2024-01-15T15:22:03;98177.00;;;6.30
19948;BMP180;10135;50.702;7.276;2024-01-15T15:24:04;98189.00;;;6.30
19948;BMP180;10135;50.702;7.276;2024-01-15T15:26:05;98180.00;;;6.30
19948;BMP180;10135;50.702;7.276;2024-01-15T15:28:06;98192.00;;;6.20
19948;BMP180;10135;50.702;7.276;2024-01-15T15:30:07;98187.00;;;6.20
19948;BMP180;10135;50.702;7.276;2024-01-15T15:32:08;98190.00;;;6.20
19948;BMP180;10135;50.702;7.276;2024-01-15T15:34:09;98196.00;;;6.20
19948;BMP180;10135;50.702;7.276;2024-01-15T15:36:10;98195.00;;;6.20
19948;BMP180;10135;50.702;7.276;2024-01-15T15:38:10;98191.00;;;6.20
19948;BMP180;10135;50.702;7.276;2024-01-15T15:40:11;98201.00;;;6.20
19948;BMP180;10135;50.702;7.276;2024-01-15T15:42:13;98209.00;;;6.20
19948;BMP180;10135;50.702;7.276;2024-01-15T15:44:14;98220.00;;;6.20
19948;BMP180;10135;50.702;7.276;2024-01-15T15:46:17;98205.00;;;6.20
19948;BMP180;10135;50.702;7.276;2024-01-15T15:48:17;98214.00;;;6.20
19948;BMP180;10135;50.702;7.276;2024-01-15T15:50:18;98222.00;;;6.20
19948;BMP180;10135;50.702;7.276;2024-01-15T15:52:19;98230.00;;;6.20
19948;BMP180;10135;50.702;7.276;2024-01-15T15:54:19;98226.00;;;6.20
19948;BMP180;10135;50.702;7.276;2024-01-15T15:56:20;98242.00;;;6.20
19948;BMP180;10135;50.702;7.276;2024-01-15T15:58:21;98231.00;;;6.20
19948;BMP180;10135;50.702;7.276;2024-01-15T16:00:21;98237.00;;;6.20
19948;BMP180;10135;50.702;7.276;2024-01-15T16:02:22;98248.00;;;6.20
19948;BMP180;10135;50.702;7.276;2024-01-15T16:04:22;98241.00;;;6.20
19948;BMP180;10135;50.702;7.276;2024-01-15T16:06:23;98263.00;;;6.20
19948;BMP180;10135;50.702;7.276;2024-01-15T16:08:24;98252.00;;;6.20
19948;BMP180;10135;50.702;7.276;2024-01-15T16:10:24;98250.00;;;6.20
19948;BMP180;10135;50.702;7.276;2024-01-15T16:12:25;98261.00;;;6.20
19948;BMP180;10135;50.702;7.276;2024-01-15T16:14:25;98268.00;;;6.20
19948;BMP180;10135;50.702;7.276;2024-01-15T16:16:26;98271.00;;;6.20
19948;BMP180;10135;50.702;7.276;2024-01-15T16:18:27;98285.00;;;6.20
19948;BMP180;10135;50.702;7.276;2024-01-15T16:20:27;98282.00;;;6.20
19948;BMP180;10135;50.702;7.276;2024-01-15T16:22:28;98282.00;;;6.20
19948;BMP180;10135;50.702;7.276;2024-01-15T16:24:29;98286.00;;;6.20
19948;BMP180;10135;50.702;7.276;2024-01-15T16:26:30;98286.00;;;6.20
19948;BMP180;10135;50.702;7.276;2024-01-15T16:28:30;98302.00;;;6.20
19948;BMP180;10135;50.702;7.276;2024-01-15T16:30:31;98294.00;;;6.20
19948;BMP180;10135;50.702;7.276;2024-01-15T16:32:32;98309.00;;;6.20
19948;BMP180;10135;50.702;7.276;2024-01-15T16:34:33;98308.00;;;6.20
19948;BMP180;10135;50.702;7.276;2024-01-15T16:36:33;98303.00;;;6.20
19948;BMP180;10135;50.702;7.276;2024-01-15T16:38:34;98298.00;;;6.30
19948;BMP180;10135;50.702;7.276;2024-01-15T16:40:34;98300.00;;;6.20
19948;BMP180;10135;50.702;7.276;2024-01-15T16:42:35;98312.00;;;6.30
19948;BMP180;10135;50.702;7.276;2024-01-15T16:44:36;98308.00;;;6.30
19948;BMP180;10135;50.702;7.276;2024-01-15T16:46:37;98313.00;;;6.30
19948;BMP180;10135;50.702;7.276;2024-01-15T16:48:37;98315.00;;;6.30
19948;BMP180;10135;50.702;7.276;2024-01-15T16:50:39;98312.00;;;6.20
19948;BMP180;10135;50.702;7.276;2024-01-15T16:52:39;98312.00;;;6.30
19948;BMP180;10135;50.702;7.276;2024-01-15T16:54:40;98307.00;;;6.30
19948;BMP180;10135;50.702;7.276;2024-01-15T16:56:40;98321.00;;;6.30
19948;BMP180;10135;50.702;7.276;2024-01-15T16:58:41;98323.00;;;6.30
19948;BMP180;10135;50.702;7.276;2024-01-15T17:00:42;98326.00;;;6.30
19948;BMP180;10135;50.702;7.276;2024-01-15T17:02:42;98331.00;;;6.30
19948;BMP180;10135;50.702;7.276;2024-01-15T17:04:43;98323.00;;;6.30
19948;BMP180;10135;50.702;7.276;2024-01-15T17:06:44;98331.00;;;6.30
19948;BMP180;10135;50.702;7.276;2024-01-15T17:08:44;98333.00;;;6.30
19948;BMP180;10135;50.702;7.276;2024-01-15T17:10:45;98332.00;;;6.30
19948;BMP180;10135;50.702;7.276;2024-01-15T17:12:45;98335.00;;;6.30
19948;BMP180;10135;50.702;7.276;2024-01-15T17:14:47;98341.00;;;6.30
19948;BMP180;10135;50.702;7.276;2024-01-15T17:16:48;98335.00;;;6.30
19948;BMP180;10135;50.702;7.276;2024-01-15T17:18:49;98332.00;;;6.30
19948;BMP180;10135;50.702;7.276;2024-01-15T17:20:52;98340.00;;;6.30
19948;BMP180;10135;50.702;7.276;2024-01-15T17:22:53;98336.00;;;6.30
19948;BMP180;10135;50.702;7.276;2024-01-15T17:24:53;98342.00;;;6.30
19948;BMP180;10135;50.702;7.276;2024-01-15T17:26:54;98346.00;;;6.30
19948;BMP180;10135;50.702;7.276;2024-01-15T17:28:55;98342.00;;;6.30
19948;BMP180;10135;50.702;7.276;2024-01-15T17:30:56;98347.00;;;6.30
19948;BMP180;10135;50.702;7.276;2024-01-15T17:32:59;98351.00;;;6.30
19948;BMP180;10135;50.702;7.276;2024-01-15T17:35:00;98356.00;;;6.20
19948;BMP180;10135;50.702;7.276;2024-01-15T17:37:01;98361.00;;;6.20
19948;BMP180;10135;50.702;7.276;2024-01-15T17:39:01;98363.00;;;6.20
19948;BMP180;10135;50.702;7.276;2024-01-15T17:41:02;98366.00;;;6.20
19948;BMP180;10135;50.702;7.276;2024-01-15T17:43:03;98367.00;;;6.20
19948;BMP180;10135;50.702;7.276;2024-01-15T17:45:05;98373.00;;;6.20
19948;BMP180;10135;50.702;7.276;2024-01-15T17:47:07;98368.00;;;6.20
19948;BMP180;10135;50.702;7.276;2024-01-15T17:49:08;98376.00;;;6.20
19948;BMP180;10135;50.702;7.276;2024-01-15T17:51:09;98372.00;;;6.20
19948;BMP180;10135;50.702;7.276;2024-01-15T17:53:11;98373.00;;;6.20
19948;BMP180;10135;50.702;7.276;2024-01-15T17:55:11;98371.00;;;6.20
19948;BMP180;10135;50.702;7.276;2024-01-15T17:57:12;98372.00;;;6.20
19948;BMP180;10135;50.702;7.276;2024-01-15T17:59:13;98375.00;;;6.20
19948;BMP180;10135;50.702;7.276;2024-01-15T18:01:13;98381.00;;;6.20